createdAt,value
2022-09-07T00:00:11.681Z,101250.59
2022-09-07T00:02:39.182Z,101241.75
2022-09-07T00:05:08.641Z,101244.84
2022-09-07T00:07:36.078Z,101224.16
2022-09-07T00:10:03.465Z,101217.09
2022-09-07T00:12:30.893Z,101213.72
2022-09-07T00:14:58.304Z,101205.19
2022-09-07T00:17:25.730Z,101205.84
2022-09-07T00:19:53.141Z,101201.78
2022-09-07T00:22:22.256Z,101199.16
2022-09-07T00:24:49.700Z,101200.63
2022-09-07T00:27:17.108Z,101193.34
2022-09-07T00:29:44.606Z,101188.28
2022-09-07T00:32:12.068Z,101174.06
2022-09-07T00:34:39.507Z,101162.47
2022-09-07T00:37:06.988Z,101167.38
2022-09-07T00:39:35.784Z,101167.66
2022-09-07T00:42:03.180Z,101168.59
2022-09-07T00:44:49.210Z,101168.16
2022-09-07T00:47:19.402Z,101170.34
2022-09-07T00:49:50.579Z,101176.09
2022-09-07T00:52:20.448Z,101168.59
2022-09-07T00:54:52.119Z,101172.63
2022-09-07T00:57:19.941Z,101181.19
2022-09-07T00:59:48.811Z,101176.91
2022-09-07T01:02:18.045Z,101174.84
2022-09-07T01:04:47.562Z,101179.69
2022-09-07T01:07:14.973Z,101169.78
2022-09-07T01:09:42.938Z,101173.66
2022-09-07T01:12:11.664Z,101173.66
2022-09-07T01:14:42.111Z,101177.72
2022-09-07T01:17:13.126Z,101190.53
2022-09-07T01:19:54.847Z,101183.56
2022-09-07T01:22:35.755Z,101182.81
2022-09-07T01:25:05.537Z,101177.38
2022-09-07T01:27:54.622Z,101157.28
2022-09-07T01:30:24.067Z,101140.25
2022-09-07T01:32:58.948Z,101135.66
2022-09-07T01:35:30.279Z,101129.16
2022-09-07T01:38:03.264Z,101142.06
2022-09-07T01:40:35.337Z,101151.00
2022-09-07T01:43:08.899Z,101151.00
2022-09-07T01:45:38.016Z,101146.94
2022-09-07T01:48:07.144Z,101135.34
2022-09-07T01:50:38.776Z,101130.22
2022-09-07T01:53:09.541Z,101125.69
2022-09-07T01:55:38.348Z,101127.25
2022-09-07T01:58:09.712Z,101131.34
2022-09-07T02:00:39.364Z,101137.53
2022-09-07T02:03:09.465Z,101129.03
2022-09-07T02:05:41.795Z,101121.47
2022-09-07T02:08:12.645Z,101129.19
2022-09-07T02:10:41.813Z,101114.16
2022-09-07T02:13:14.245Z,101118.47
2022-09-07T02:15:44.948Z,101119.34
2022-09-07T02:18:13.825Z,101119.66
2022-09-07T02:20:43.566Z,101115.59
2022-09-07T02:23:15.021Z,101113.19
2022-09-07T02:25:44.708Z,101114.66
2022-09-07T02:28:14.616Z,101108.78
2022-09-07T02:30:42.270Z,101115.09
2022-09-07T02:33:09.846Z,101110.63
2022-09-07T02:35:37.373Z,101108.78
2022-09-07T02:38:06.182Z,101116.31
2022-09-07T02:40:33.621Z,101111.03
2022-09-07T02:43:02.904Z,101118.75
2022-09-07T02:45:36.019Z,101112.44
2022-09-07T02:48:10.576Z,101113.47
2022-09-07T02:50:53.137Z,101109.41
2022-09-07T02:53:35.480Z,101106.19
2022-09-07T02:56:07.640Z,101104.59
2022-09-07T02:58:41.230Z,101107.09
2022-09-07T03:01:14.327Z,101109.91
2022-09-07T03:03:47.556Z,101116.09
2022-09-07T03:06:20.052Z,101107.97
2022-09-07T03:08:49.615Z,101096.19
2022-09-07T03:11:18.103Z,101101.81
2022-09-07T03:13:45.663Z,101108.81
2022-09-07T03:16:15.261Z,101112.28
2022-09-07T03:18:43.481Z,101112.13
2022-09-07T03:21:10.919Z,101117.41
2022-09-07T03:23:38.971Z,101116.81
2022-09-07T03:26:06.515Z,101112.56
2022-09-07T03:28:33.942Z,101119.06
2022-09-07T03:31:02.042Z,101118.94
2022-09-07T03:33:30.848Z,101124.53
2022-09-07T03:35:58.965Z,101114.91
2022-09-07T03:38:26.381Z,101121.00
2022-09-07T03:40:58.366Z,101119.34
2022-09-07T03:43:25.739Z,101109.00
2022-09-07T03:45:57.560Z,101110.22
2022-09-07T03:48:25.045Z,101096.22
2022-09-07T03:51:01.231Z,101090.94
2022-09-07T03:53:28.658Z,101095.22
2022-09-07T03:55:56.905Z,101097.25
2022-09-07T03:58:24.327Z,101097.72
2022-09-07T04:00:51.729Z,101081.09
2022-09-07T04:03:19.112Z,101084.53
2022-09-07T04:05:46.572Z,101079.47
2022-09-07T04:08:15.330Z,101077.84
2022-09-07T04:10:42.925Z,101068.31
2022-09-07T04:13:10.864Z,101072.22
2022-09-07T04:15:38.264Z,101078.44
2022-09-07T04:18:05.669Z,101079.66
2022-09-07T04:20:33.098Z,101075.19
2022-09-07T04:23:00.474Z,101070.19
2022-09-07T04:25:29.218Z,101069.56
2022-09-07T04:27:56.753Z,101062.59
2022-09-07T04:30:24.139Z,101066.47
2022-09-07T04:32:51.534Z,101073.34
2022-09-07T04:35:18.967Z,101082.56
2022-09-07T04:37:46.779Z,101089.63
2022-09-07T04:40:14.244Z,101090.72
2022-09-07T04:42:43.029Z,101091.63
2022-09-07T04:45:10.753Z,101094.47
2022-09-07T04:47:38.179Z,101089.19
2022-09-07T04:50:05.995Z,101087.38
2022-09-07T04:52:33.971Z,101090.00
2022-09-07T04:55:01.368Z,101088.19
2022-09-07T04:57:28.835Z,101092.03
2022-09-07T04:59:57.766Z,101087.38
2022-09-07T05:02:25.262Z,101080.53
2022-09-07T05:04:52.686Z,101087.22
2022-09-07T05:07:20.086Z,101085.97
2022-09-07T05:09:48.283Z,101090.06
2022-09-07T05:12:15.668Z,101089.09
2022-09-07T05:14:43.037Z,101084.66
2022-09-07T05:17:11.742Z,101083.38
2022-09-07T05:19:39.158Z,101083.19
2022-09-07T05:22:06.638Z,101086.00
2022-09-07T05:24:36.657Z,101090.22
2022-09-07T05:27:04.104Z,101083.06
2022-09-07T05:32:20.216Z,101079.84
2022-09-07T05:34:49.644Z,101073.75
2022-09-07T05:37:18.350Z,101074.94
2022-09-07T05:39:45.788Z,101076.97
2022-09-07T05:42:13.231Z,101078.88
2022-09-07T05:44:44.439Z,101082.72
2022-09-07T05:47:12.672Z,101077.84
2022-09-07T05:49:41.470Z,101082.09
2022-09-07T05:52:08.930Z,101073.59
2022-09-07T05:54:36.379Z,101079.63
2022-09-07T05:57:03.952Z,101077.44
2022-09-07T05:59:31.346Z,101073.34
2022-09-07T06:01:58.770Z,101087.97
2022-09-07T06:04:26.285Z,101091.22
2022-09-07T06:12:29.917Z,101106.03
2022-09-07T06:14:57.313Z,101110.06
2022-09-07T06:17:24.745Z,101116.75
2022-09-07T06:19:52.095Z,101113.06
2022-09-07T06:22:20.812Z,101111.38
2022-09-07T06:24:48.212Z,101110.88
2022-09-07T06:27:15.572Z,101115.22
2022-09-07T06:29:42.941Z,101125.84
2022-09-07T06:34:57.715Z,101116.41
2022-09-07T06:37:26.422Z,101116.88
2022-09-07T06:39:53.862Z,101117.75
2022-09-07T06:42:21.328Z,101119.25
2022-09-07T06:44:48.710Z,101123.28
2022-09-07T06:47:16.072Z,101120.25
2022-09-07T06:49:43.469Z,101121.50
2022-09-07T06:52:10.841Z,101120.03
2022-09-07T06:57:27.161Z,101133.28
2022-09-07T06:59:54.557Z,101142.47
2022-09-07T07:02:21.970Z,101141.63
2022-09-07T07:04:50.332Z,101134.28
2022-09-07T07:07:17.702Z,101138.22
2022-09-07T07:09:46.428Z,101135.91
2022-09-07T07:12:13.854Z,101136.16
2022-09-07T07:14:44.942Z,101129.50
2022-09-07T07:17:12.733Z,101134.56
2022-09-07T07:19:40.268Z,101135.59
2022-09-07T07:22:42.550Z,101142.63
2022-09-07T07:24:56.396Z,101154.28
2022-09-07T07:27:23.805Z,101150.28
2022-09-07T07:29:52.344Z,101152.63
2022-09-07T07:32:19.742Z,101091.00
2022-09-07T07:35:07.414Z,101079.53
2022-09-07T07:37:34.745Z,101139.50
2022-09-07T07:40:21.411Z,101143.22
2022-09-07T07:42:51.002Z,101158.81
2022-09-07T07:48:05.985Z,101147.41
2022-09-07T07:50:34.153Z,101150.47
2022-09-07T07:55:50.572Z,101157.84
2022-09-07T07:58:17.978Z,101163.13
2022-09-07T08:01:00.723Z,101167.59
2022-09-07T08:03:28.534Z,101110.41
2022-09-07T08:05:56.058Z,101172.53
2022-09-07T08:08:24.117Z,101169.03
2022-09-07T08:10:53.221Z,101170.16
2022-09-07T08:13:21.232Z,101170.25
2022-09-07T08:15:48.837Z,101185.44
2022-09-07T08:18:16.937Z,101182.66
2022-09-07T08:20:44.315Z,101180.72
2022-09-07T08:23:11.880Z,101184.84
2022-09-07T08:25:39.451Z,101185.56
2022-09-07T08:28:08.169Z,101179.78
2022-09-07T08:30:35.547Z,101178.63
2022-09-07T08:33:02.901Z,101179.22
2022-09-07T08:35:30.267Z,101177.31
2022-09-07T08:37:57.597Z,101179.59
2022-09-07T08:40:25.028Z,101169.81
2022-09-07T08:42:57.830Z,101178.88
2022-09-07T08:45:29.470Z,101186.06
2022-09-07T08:47:56.873Z,101185.81
2022-09-07T08:50:28.783Z,101192.16
2022-09-07T08:52:58.445Z,101185.81
2022-09-07T08:55:27.828Z,101191.69
2022-09-07T08:57:58.296Z,101197.91
2022-09-07T09:00:27.311Z,101196.72
2022-09-07T09:05:45.589Z,101190.63
2022-09-07T09:08:24.007Z,101189.44
2022-09-07T09:10:56.496Z,101187.72
2022-09-07T09:13:27.616Z,101179.59
2022-09-07T09:16:01.721Z,101181.78
2022-09-07T09:18:35.198Z,101181.03
2022-09-07T09:21:03.177Z,101178.00
2022-09-07T09:23:32.627Z,101186.63
2022-09-07T09:26:02.294Z,101182.63
2022-09-07T09:28:31.883Z,101185.53
2022-09-07T09:31:01.308Z,101187.13
2022-09-07T09:33:29.578Z,101186.78
2022-09-07T09:35:57.784Z,101193.75
2022-09-07T09:38:35.039Z,101192.09
2022-09-07T09:41:05.158Z,101192.78
2022-09-07T09:43:37.943Z,101187.25
2022-09-07T09:46:16.985Z,101190.25
2022-09-07T09:48:44.413Z,101189.72
2022-09-07T09:54:05.913Z,101189.91
2022-09-07T09:56:40.573Z,101189.91
2022-09-07T10:05:21.456Z,101185.47
2022-09-07T10:07:51.911Z,101186.84
2022-09-07T10:10:19.354Z,101185.38
2022-09-07T10:12:47.211Z,101190.03
2022-09-07T10:15:25.440Z,101192.56
2022-09-07T10:17:54.178Z,101196.41
2022-09-07T10:20:32.202Z,101181.91
2022-09-07T10:23:00.397Z,101186.78
2022-09-07T10:25:29.722Z,101196.81
2022-09-07T10:28:01.989Z,101193.63
2022-09-07T10:30:35.034Z,101197.03
2022-09-07T10:33:08.973Z,101192.31
2022-09-07T10:35:41.177Z,101193.53
2022-09-07T10:38:15.977Z,101193.00
2022-09-07T10:40:45.268Z,101178.44
2022-09-07T10:43:27.609Z,101186.34
2022-09-07T10:46:03.539Z,101177.84
2022-09-07T10:48:39.383Z,101180.13
2022-09-07T10:51:14.328Z,101183.81
2022-09-07T10:53:47.161Z,101180.13
2022-09-07T10:56:18.481Z,101178.41
2022-09-07T10:59:04.984Z,101176.41
2022-09-07T11:01:39.065Z,101190.09
2022-09-07T11:04:26.801Z,101183.94
2022-09-07T11:06:59.687Z,101177.53
2022-09-07T11:09:37.602Z,101175.19
2022-09-07T11:12:07.727Z,101179.41
2022-09-07T11:14:39.460Z,101181.63
2022-09-07T11:17:13.895Z,101170.94
2022-09-07T11:19:45.462Z,101179.69
2022-09-07T11:22:18.887Z,101166.91
2022-09-07T11:25:29.172Z,101181.75
2022-09-07T11:27:40.684Z,101185.09
2022-09-07T11:30:16.926Z,101184.53
2022-09-07T11:32:49.486Z,101179.03
2022-09-07T11:35:22.762Z,101181.41
2022-09-07T11:37:59.567Z,101174.63
2022-09-07T11:40:31.468Z,101174.19
2022-09-07T11:43:01.279Z,101177.03
2022-09-07T11:45:32.289Z,101179.84
2022-09-07T11:48:04.580Z,101173.31
2022-09-07T11:50:35.757Z,101173.69
2022-09-07T11:53:05.962Z,101174.34
2022-09-07T11:55:36.147Z,101167.81
2022-09-07T11:58:30.223Z,101165.84
2022-09-07T12:01:04.532Z,101166.66
2022-09-07T12:03:37.926Z,101169.16
2022-09-07T12:06:21.568Z,101165.69
2022-09-07T12:09:00.601Z,101167.53
2022-09-07T12:11:35.169Z,101162.56
2022-09-07T12:14:17.374Z,101160.69
2022-09-07T12:16:54.327Z,101157.38
2022-09-07T12:19:23.586Z,101149.66
2022-09-07T12:21:57.750Z,101154.78
2022-09-07T12:24:33.287Z,101148.38
2022-09-07T12:27:01.112Z,101151.69
2022-09-07T12:29:29.452Z,101152.59
2022-09-07T12:31:59.755Z,101138.56
2022-09-07T12:34:39.811Z,101099.53
2022-09-07T12:37:22.622Z,101145.28
2022-09-07T12:39:51.395Z,101143.81
2022-09-07T12:42:39.246Z,101148.91
2022-09-07T12:45:24.536Z,101149.94
2022-09-07T12:47:57.098Z,101142.72
2022-09-07T12:50:28.443Z,101138.56
2022-09-07T12:53:10.831Z,101134.13
2022-09-07T12:58:52.152Z,101130.19
2022-09-07T13:01:24.876Z,101128.31
2022-09-07T13:04:03.657Z,101119.41
2022-09-07T13:09:35.242Z,101120.94
2022-09-07T13:12:07.197Z,101119.97
2022-09-07T13:14:37.908Z,101114.25
2022-09-07T13:17:24.146Z,101117.03
2022-09-07T13:20:12.144Z,101111.19
2022-09-07T13:22:55.763Z,101108.00
2022-09-07T13:25:38.180Z,101112.94
2022-09-07T13:28:06.793Z,101108.50
2022-09-07T13:30:46.422Z,101107.28
2022-09-07T13:33:32.745Z,101100.59
2022-09-07T13:36:01.496Z,101095.97
2022-09-07T13:38:29.786Z,101097.09
2022-09-07T13:41:01.797Z,101106.16
2022-09-07T13:43:29.229Z,101100.84
2022-09-07T13:46:02.221Z,101094.22
2022-09-07T13:48:33.805Z,101091.13
2022-09-07T13:51:05.031Z,101089.97
2022-09-07T13:53:41.379Z,101090.13
2022-09-07T13:56:16.355Z,101091.50
2022-09-07T13:58:44.795Z,101086.31
2022-09-07T14:01:19.051Z,101084.22
2022-09-07T14:03:48.707Z,101081.59
2022-09-07T14:06:28.662Z,101081.56
2022-09-07T14:08:57.117Z,101092.28
2022-09-07T14:11:25.716Z,101078.72
2022-09-07T14:14:09.761Z,101084.53
2022-09-07T14:16:39.173Z,101085.88
2022-09-07T14:19:14.385Z,101082.22
2022-09-07T14:21:41.984Z,101082.56
2022-09-07T14:24:19.252Z,101089.47
2022-09-07T14:26:47.634Z,101088.00
2022-09-07T14:29:22.699Z,101076.25
2022-09-07T14:31:51.801Z,101081.59
2022-09-07T14:34:21.718Z,101085.38
2022-09-07T14:36:49.751Z,101080.28
2022-09-07T14:39:18.875Z,101070.59
2022-09-07T14:41:46.769Z,101075.16
2022-09-07T14:44:31.164Z,101070.94
2022-09-07T14:47:02.075Z,101070.38
2022-09-07T14:49:29.731Z,101067.16
2022-09-07T14:51:57.352Z,101073.28
2022-09-07T14:54:27.457Z,101072.47
2022-09-07T14:57:06.478Z,101065.19
2022-09-07T14:59:41.491Z,101066.94
2022-09-07T15:02:23.929Z,101069.28
2022-09-07T15:05:11.387Z,101061.34
2022-09-07T15:07:40.010Z,101072.50
2022-09-07T15:10:16.590Z,101061.84
2022-09-07T15:12:44.315Z,101059.97
2022-09-07T15:15:25.094Z,101057.03
2022-09-07T15:17:55.941Z,101057.53
2022-09-07T15:20:35.718Z,101056.47
2022-09-07T15:23:04.866Z,101050.34
2022-09-07T15:25:32.606Z,101050.00
2022-09-07T15:28:00.089Z,101048.41
2022-09-07T15:30:27.729Z,101054.09
2022-09-07T15:32:57.620Z,101044.53
2022-09-07T15:35:25.587Z,101047.97
2022-09-07T15:41:03.694Z,101014.78
2022-09-07T15:43:29.997Z,101042.47
2022-09-07T15:45:57.392Z,101043.31
2022-09-07T15:48:26.289Z,101033.97
2022-09-07T15:51:00.992Z,101036.84
2022-09-07T15:56:16.295Z,101041.00
2022-09-07T15:58:43.920Z,101039.94
2022-09-07T16:04:01.711Z,100992.38
2022-09-07T16:06:32.470Z,101038.22
2022-09-07T16:09:00.184Z,101034.53
2022-09-07T16:11:28.554Z,101025.78
2022-09-07T16:17:25.421Z,101029.78
2022-09-07T16:19:15.423Z,101019.56
2022-09-07T16:21:42.930Z,101025.50
2022-09-07T16:24:10.374Z,101025.28
2022-09-07T16:26:37.755Z,101019.66
2022-09-07T16:29:05.960Z,101017.53
2022-09-07T16:31:33.638Z,101017.53
2022-09-07T16:34:02.533Z,101018.63
2022-09-07T16:36:31.270Z,101019.09
2022-09-07T16:39:00.872Z,101010.31
2022-09-07T16:41:30.969Z,101018.84
2022-09-07T16:43:58.906Z,101012.16
2022-09-07T16:46:27.585Z,101015.88
2022-09-07T16:48:55.074Z,101004.34
2022-09-07T16:51:22.910Z,101010.03
2022-09-07T16:53:52.491Z,101003.59
2022-09-07T16:56:21.102Z,101004.00
2022-09-07T16:58:50.202Z,101008.09
2022-09-07T17:01:19.132Z,101005.06
2022-09-07T17:03:46.742Z,101003.00
2022-09-07T17:06:14.858Z,101010.47
2022-09-07T17:08:42.891Z,101000.38
2022-09-07T17:11:12.300Z,101007.00
2022-09-07T17:13:40.553Z,101006.66
2022-09-07T17:16:08.733Z,101007.50
2022-09-07T17:21:24.424Z,101009.38
2022-09-07T17:23:55.567Z,101004.53
2022-09-07T17:26:27.279Z,101001.34
2022-09-07T17:28:56.574Z,101004.25
2022-09-07T17:34:15.566Z,101004.69
2022-09-07T17:36:43.106Z,100996.00
2022-09-07T17:39:14.976Z,100997.31
2022-09-07T17:41:45.143Z,100999.75
2022-09-07T17:44:12.638Z,100999.97
2022-09-07T17:46:40.358Z,100999.41
2022-09-07T17:49:08.778Z,100992.22
2022-09-07T17:51:36.584Z,100995.53
2022-09-07T17:54:09.454Z,100998.88
2022-09-07T17:56:37.923Z,100993.81
2022-09-07T18:01:54.609Z,100990.25
2022-09-07T18:04:22.299Z,100991.50
2022-09-07T18:06:49.713Z,100989.56
2022-09-07T18:09:17.285Z,100988.97
2022-09-07T18:11:46.328Z,100993.13
2022-09-07T18:14:16.236Z,100983.75
2022-09-07T18:16:44.727Z,100988.47
2022-09-07T18:19:13.006Z,100990.53
2022-09-07T18:21:41.856Z,100989.41
2022-09-07T18:24:13.629Z,100992.28
2022-09-07T18:26:41.802Z,100984.69
2022-09-07T18:29:27.352Z,100985.47
2022-09-07T18:31:57.779Z,100928.38
2022-09-07T18:34:25.203Z,100991.16
2022-09-07T18:36:52.594Z,100988.13
2022-09-07T18:39:19.966Z,100993.88
2022-09-07T18:41:47.335Z,101000.66
2022-09-07T18:47:03.367Z,100994.09
2022-09-07T18:49:30.744Z,100991.06
2022-09-07T18:54:45.374Z,100994.50
2022-09-07T18:57:12.835Z,100993.91
2022-09-07T18:59:40.979Z,100993.81
2022-09-07T19:02:10.571Z,100988.41
2022-09-07T19:07:29.634Z,100980.63
2022-09-07T19:09:58.044Z,100978.13
2022-09-07T19:12:26.041Z,100986.03
2022-09-07T19:14:53.410Z,100961.25
2022-09-07T19:17:22.114Z,100981.38
2022-09-07T19:19:49.459Z,100989.06
2022-09-07T19:22:16.803Z,100987.78
2022-09-07T19:24:44.168Z,100987.31
2022-09-07T19:27:11.506Z,100989.16
2022-09-07T19:29:39.061Z,100989.16
2022-09-07T19:32:07.409Z,100990.19
2022-09-07T19:34:37.294Z,100989.94
2022-09-07T19:37:05.658Z,100987.22
2022-09-07T19:39:33.118Z,100982.41
2022-09-07T19:42:00.613Z,100987.38
2022-09-07T19:44:33.677Z,100994.75
2022-09-07T19:47:01.261Z,100990.50
2022-09-07T19:49:28.701Z,100997.19
2022-09-07T19:51:57.456Z,100986.34
2022-09-07T19:54:24.839Z,100985.75
2022-09-07T19:56:52.284Z,100983.59
2022-09-07T19:59:20.089Z,100975.56
2022-09-07T20:01:49.360Z,100970.16
2022-09-07T20:04:20.394Z,100967.69
2022-09-07T20:06:49.693Z,100960.63
2022-09-07T20:09:19.737Z,100964.25
2022-09-07T20:11:48.148Z,100960.69
2022-09-07T20:14:15.953Z,100964.28
2022-09-07T20:16:43.438Z,100961.00
2022-09-07T20:19:14.162Z,100959.84
2022-09-07T20:21:41.661Z,100952.88
2022-09-07T20:24:09.048Z,100952.53
2022-09-07T20:26:37.753Z,100953.00
2022-09-07T20:29:26.241Z,100942.38
2022-09-07T20:31:53.440Z,100943.13
2022-09-07T20:34:20.960Z,100940.47
2022-09-07T20:36:49.733Z,100937.03
2022-09-07T20:39:17.146Z,100936.56
2022-09-07T20:41:45.863Z,100936.56
2022-09-07T20:44:13.276Z,100937.31
2022-09-07T20:46:40.708Z,100928.59
2022-09-07T20:49:08.144Z,100921.13
2022-09-07T20:51:35.513Z,100930.09
2022-09-07T20:54:02.870Z,100930.34
2022-09-07T20:56:30.472Z,100934.84
2022-09-07T20:59:00.153Z,100927.47
2022-09-07T21:01:28.388Z,100926.19
2022-09-07T21:03:57.163Z,100919.75
2022-09-07T21:06:25.323Z,100922.41
2022-09-07T21:08:52.960Z,100922.97
2022-09-07T21:11:21.285Z,100921.34
2022-09-07T21:13:48.973Z,100925.63
2022-09-07T21:16:17.875Z,100928.03
2022-09-07T21:18:45.326Z,100924.81
2022-09-07T21:21:20.841Z,100929.66
2022-09-07T21:23:48.389Z,100928.25
2022-09-07T21:26:16.094Z,100928.25
2022-09-07T21:28:43.424Z,100926.41
2022-09-07T21:31:10.802Z,100927.69
2022-09-07T21:33:39.636Z,100917.09
2022-09-07T21:36:08.129Z,100923.44
2022-09-07T21:38:36.157Z,100921.25
2022-09-07T21:41:06.220Z,100913.34
2022-09-07T21:43:33.672Z,100906.44
2022-09-07T21:46:08.009Z,100906.38
2022-09-07T21:48:35.748Z,100912.81
2022-09-07T21:51:04.543Z,100907.63
2022-09-07T21:53:32.314Z,100907.75
2022-09-07T21:56:00.535Z,100904.00
2022-09-07T21:58:28.388Z,100903.41
2022-09-07T22:00:56.454Z,100863.66
2022-09-07T22:03:25.034Z,100895.34
2022-09-07T22:05:52.620Z,100893.75
2022-09-07T22:08:21.714Z,100893.97
2022-09-07T22:10:49.042Z,100894.78
2022-09-07T22:13:16.376Z,100901.91
2022-09-07T22:15:43.708Z,100896.38
2022-09-07T22:18:12.322Z,100895.59
2022-09-07T22:20:41.026Z,100897.44
2022-09-07T22:23:08.376Z,100895.34
2022-09-07T22:25:37.061Z,100884.19
2022-09-07T22:28:04.418Z,100876.81
2022-09-07T22:30:31.768Z,100878.66
2022-09-07T22:32:59.146Z,100876.81
2022-09-07T22:35:27.179Z,100869.47
2022-09-07T22:37:54.549Z,100868.19
2022-09-07T22:40:21.867Z,100876.13
2022-09-07T22:42:50.609Z,100878.56
2022-09-07T22:45:18.139Z,100879.59
2022-09-07T22:47:45.527Z,100875.09
2022-09-07T22:50:13.416Z,100862.31
2022-09-07T22:52:40.793Z,100867.97
2022-09-07T22:55:08.381Z,100870.59
2022-09-07T22:57:35.746Z,100863.69
2022-09-07T23:00:04.923Z,100862.09
2022-09-07T23:02:32.322Z,100859.69
2022-09-07T23:04:59.726Z,100859.69
2022-09-07T23:07:27.142Z,100861.28
2022-09-07T23:09:54.621Z,100862.09
2022-09-07T23:12:21.967Z,100858.41
2022-09-07T23:14:49.313Z,100858.34
2022-09-07T23:17:18.034Z,100855.09
2022-09-07T23:19:45.406Z,100848.34
2022-09-07T23:22:12.785Z,100854.78
2022-09-07T23:24:41.563Z,100847.53
2022-09-07T23:27:09.283Z,100836.81
2022-09-07T23:29:36.612Z,100833.25
2022-09-07T23:32:04.291Z,100830.72
2022-09-07T23:34:33.038Z,100823.66
2022-09-07T23:37:00.443Z,100818.38
2022-09-07T23:39:27.966Z,100819.06
2022-09-07T23:41:55.347Z,100827.91
2022-09-07T23:44:22.700Z,100826.31
2022-09-07T23:46:50.121Z,100820.44
2022-09-07T23:49:17.577Z,100805.59
2022-09-07T23:51:46.329Z,100810.88
2022-09-07T23:54:13.684Z,100797.88
2022-09-07T23:56:41.022Z,100798.22
2022-09-07T23:59:09.331Z,100797.41
